Terminal Aerodrome Forecast
Issued by NWS Mobile, AL

Home | Current Version | Previous Version | Text Only | Print | Product List | Glossary On
Versions: 1 2 3 4 5 6 7 8 9 10 11 12 13 14 15 16 17 18 19 20 21 22 23 24 25 26 27 28 29 30
000
FTUS44 KMOB 251731
TAFPNS
TAF
KPNS 251731Z 2518/2618 15015G25KT P6SM BKN020
      TEMPO 2522/2601 VRB15G25KT 4SM +TSRA SCT008 BKN015CB OVC020
     FM260100 17017G25KT 5SM TSRA BKN025CB
      TEMPO 2601/2603 VRB25G35KT 1/2SM +TSRA SCT008 BKN015CB OVC020=

USA.gov is the U.S. government's official web portal to all federal, state and local government web resources and services.